Thursday, January 18, 2018, 12:10 AM GMT
Back to Local

CWSS, St. Stephen, N. B.

Location: , , Canada Lat: 45.217
Local Time: 12:10 AM GMT ( 0:10 GMT) Lon: -67.25
Time Zone: GMT Elev: 85 ft

Show me the last for .
Show Decoded

2018-01-17 23:00 METAR CWSS 172300Z AUTO 35002KT M03/M04 RMK AO1 5PAST HR SOG 07 8029 SLP196
                 P0002 T10261035 50047 =
2018-01-17 22:00 METAR CWSS 172200Z AUTO 01002KT M03/M04 RMK AO1 0PAST HR SOG 06 8027 SLP206
                 P0004 T10271036 50042 =
2018-01-17 21:00 METAR CWSS 172100Z AUTO 35002KT M02/M04 RMK AO1 0PAST HR SOG 04 6027 SLP217
                 P0004 T10151035 50033 =
2018-01-17 20:00 METAR CWSS 172000Z AUTO 35003KT M02/M03 RMK AO1 3PAST HR SOG 05 6030 SLP226
                 P0005 T10201031 50022 =
2018-01-17 19:00 METAR CWSS 171900Z AUTO 35002KT M02/M03 RMK AO1 0PAST HR SOG 04 6040 SLP234
                 P0004 T10181031 50010 =
2018-01-17 18:00 METAR CWSS 171800Z AUTO 34002KT M02/M03 RMK AO1 0PAST HR SOG 03 6043 SLP244
                 P0004 T10201034 50040 =
2018-01-17 17:00 METAR CWSS 171700Z AUTO 00000KT M03/M05 RMK AO1 8PAST HR SOG 02 8040 SLP256
                 P0003 T10321049 50031 =
2018-01-17 16:00 METAR CWSS 171600Z AUTO 00000KT M04/M06 RMK AO1 7PAST HR SOG 00 8025 SLP274
                 P0003 T10391056 50023 =
2018-01-17 15:00 METAR CWSS 171500Z AUTO 00000KT M05/M06 RMK AO1 6PAST HR SOG 01 8014 SLP287
                 P0002 T10481063 50016 =
2018-01-17 14:00 METAR CWSS 171400Z AUTO 00000KT M06/M08 RMK AO1 5PAST HR SOG 00 6010 SLP296
                 P0002 T10631075 50011 =
2018-01-17 13:00 METAR CWSS 171300Z AUTO 00000KT M08/M09 RMK AO1 6PAST HR SOG 00 8008 SLP299
                 P0002 T10771088 50006 =
2018-01-17 12:00 METAR CWSS 171200Z AUTO 00000KT M08/M10 RMK AO1 5PAST HR SOG 05 8008 SLP301
                 P0002 T10831095 50009 =
2018-01-17 11:00 METAR CWSS 171100Z AUTO 00000KT M09/M10 RMK AO1 3PAST HR SOG 04 8003 SLP306
                 P0001 T10871099 50005 =
2018-01-17 10:00 METAR CWSS 171000Z AUTO 00000KT M09/M10 RMK AO1 2PAST HR SOG 04 8003 SLP307
                 P0001 T10901103 50002 =
2018-01-17 09:00 METAR CWSS 170900Z AUTO 00000KT M09/M11 RMK AO1 SOG 04 0000 SLP309 T10941107 =
2018-01-17 08:00 METAR CWSS 170800Z AUTO 19001KT M10/M12 RMK AO1 SOG 04 6006 SLP309 T11011115 =
2018-01-17 07:00 METAR CWSS 170700Z AUTO 00000KT M10/M12 RMK AO1 SOG 04 5007 SLP310 T11041118 =
2018-01-17 06:00 METAR CWSS 170600Z AUTO 34001KT M11/M12 RMK AO1 SOG 04 8013 SLP309 T11111115 =
2018-01-17 05:00 METAR CWSS 170500Z AUTO 00000KT M12/M14 RMK AO1 SOG 04 7009 SLP315 T11151140 =
2018-01-17 04:00 METAR CWSS 170400Z AUTO 00000KT M13/M14 RMK AO1 SOG 04 8008 SLP317 T11271142 =
2018-01-17 03:00 METAR CWSS 170300Z AUTO 34001KT M13/M14 RMK AO1 SOG 04 8003 SLP322 T11271142 =
2018-01-17 02:00 METAR CWSS 170200Z AUTO 00000KT M13/M14 RMK AO1 SOG 04 7002 SLP324 T11271142 =
2018-01-17 01:00 METAR CWSS 170100Z AUTO 34001KT M13/M14 RMK AO1 SOG 04 1004 SLP325 T11281143 =

Support USWX by starting your Amazon purchase here.